createdAt,value
2023-03-15T00:00:53.811Z,6.97
2023-03-15T00:03:56.792Z,7.50
2023-03-15T00:06:59.401Z,6.07
2023-03-15T00:10:02.533Z,5.80
2023-03-15T00:13:05.110Z,6.97
2023-03-15T00:16:08.503Z,6.70
2023-03-15T00:19:11.690Z,7.30
2023-03-15T00:22:14.686Z,8.00
2023-03-15T00:25:17.068Z,9.80
2023-03-15T00:28:19.931Z,8.77
2023-03-15T00:31:25.186Z,10.33
2023-03-15T00:34:28.267Z,8.55
2023-03-15T00:37:31.971Z,7.35
2023-03-15T00:40:41.356Z,7.80
2023-03-15T00:43:44.738Z,9.90
2023-03-15T00:46:47.528Z,7.20
2023-03-15T00:49:50.861Z,5.85
2023-03-15T00:52:53.599Z,6.90
2023-03-15T00:55:56.999Z,6.20
2023-03-15T00:58:59.896Z,6.95
2023-03-15T01:02:03.408Z,4.00
2023-03-15T01:05:08.690Z,5.03
2023-03-15T01:08:11.142Z,5.65
2023-03-15T01:11:17.919Z,5.20
2023-03-15T01:14:20.402Z,4.85
2023-03-15T01:17:23.583Z,6.03
2023-03-15T01:20:26.774Z,5.65
2023-03-15T01:23:29.408Z,5.40
2023-03-15T01:26:32.025Z,5.30
2023-03-15T01:29:35.484Z,5.70
2023-03-15T01:32:38.585Z,5.37
2023-03-15T01:35:42.022Z,5.88
2023-03-15T01:38:45.325Z,5.70
2023-03-15T01:41:48.590Z,6.27
2023-03-15T01:44:53.682Z,4.55
2023-03-15T01:47:56.840Z,4.45
2023-03-15T01:51:02.706Z,5.63
2023-03-15T01:54:15.628Z,5.00
2023-03-15T01:57:41.415Z,4.78
2023-03-15T02:00:45.971Z,4.65
2023-03-15T02:03:58.591Z,3.70
2023-03-15T02:07:08.572Z,4.25
2023-03-15T02:10:14.792Z,3.88
2023-03-15T02:13:23.091Z,3.27
2023-03-15T02:16:26.547Z,3.42
2023-03-15T02:19:46.466Z,3.30
2023-03-15T02:22:58.148Z,3.67
2023-03-15T02:26:03.763Z,4.68
2023-03-15T02:29:06.507Z,4.25
2023-03-15T02:32:09.882Z,4.05
2023-03-15T02:35:12.625Z,4.37
2023-03-15T02:38:15.528Z,4.75
2023-03-15T02:41:39.491Z,4.28
2023-03-15T02:44:45.250Z,4.97
2023-03-15T02:47:49.683Z,4.60
2023-03-15T02:50:53.006Z,4.80
2023-03-15T02:53:56.134Z,4.90
2023-03-15T02:56:58.945Z,7.13
2023-03-15T03:00:12.391Z,6.40
2023-03-15T03:03:15.331Z,6.05
2023-03-15T03:06:18.569Z,5.60
2023-03-15T03:09:24.214Z,4.30
2023-03-15T03:12:27.112Z,3.50
2023-03-15T03:15:30.057Z,3.23
2023-03-15T03:18:35.963Z,4.00
2023-03-15T03:21:43.492Z,3.90
2023-03-15T03:24:48.191Z,4.35
2023-03-15T03:27:52.150Z,4.25
2023-03-15T03:30:56.166Z,3.58
2023-03-15T03:33:59.281Z,3.50
2023-03-15T03:37:04.066Z,3.47
2023-03-15T03:40:28.548Z,3.53
2023-03-15T03:43:31.190Z,4.00
2023-03-15T03:46:36.530Z,4.27
2023-03-15T03:49:39.363Z,4.18
2023-03-15T03:52:44.115Z,3.67
2023-03-15T03:55:54.568Z,3.88
2023-03-15T03:58:58.910Z,3.85
2023-03-15T04:02:16.708Z,3.72
2023-03-15T04:05:26.965Z,4.00
2023-03-15T04:08:29.775Z,4.10
2023-03-15T04:11:33.069Z,4.65
2023-03-15T04:14:38.829Z,4.00
2023-03-15T04:17:44.488Z,4.23
2023-03-15T04:20:49.490Z,6.03
2023-03-15T04:23:54.342Z,5.50
2023-03-15T04:27:14.827Z,5.32
2023-03-15T04:30:44.498Z,5.13
2023-03-15T04:33:57.546Z,5.97
2023-03-15T04:37:19.455Z,5.70
2023-03-15T04:40:50.961Z,6.07
2023-03-15T04:44:20.306Z,5.95
2023-03-15T04:47:33.733Z,5.80
2023-03-15T04:51:12.051Z,5.50
2023-03-15T04:54:25.182Z,5.60
2023-03-15T04:57:52.822Z,4.72
2023-03-15T05:01:17.021Z,5.57
2023-03-15T05:04:33.285Z,5.30
2023-03-15T05:07:49.979Z,5.95
2023-03-15T05:11:18.635Z,5.55
2023-03-15T05:14:44.392Z,6.43
2023-03-15T05:18:06.913Z,6.25
2023-03-15T05:21:44.925Z,6.57
2023-03-15T05:24:47.832Z,5.47
2023-03-15T05:28:18.175Z,3.92
2023-03-15T05:31:41.593Z,2.20
2023-03-15T05:35:01.713Z,2.72
2023-03-15T05:38:18.905Z,1.20
2023-03-15T05:41:36.262Z,1.67
2023-03-15T05:45:10.377Z,0.70
2023-03-15T05:48:29.050Z,0.30
2023-03-15T05:51:51.954Z,0.22
2023-03-15T05:55:10.496Z,0.30
2023-03-15T05:58:28.607Z,0.30
2023-03-15T06:01:51.477Z,0.30
2023-03-15T06:05:00.438Z,0.40
2023-03-15T06:08:04.117Z,0.40
2023-03-15T06:11:08.118Z,0.40
2023-03-15T06:14:11.597Z,0.75
2023-03-15T06:17:23.699Z,0.47
2023-03-15T06:20:29.092Z,0.53
2023-03-15T06:23:36.605Z,0.50
2023-03-15T06:26:40.251Z,0.82
2023-03-15T06:29:43.868Z,0.67
2023-03-15T06:32:46.838Z,0.40
2023-03-15T06:35:50.267Z,0.60
2023-03-15T06:38:54.580Z,0.80
2023-03-15T06:41:58.771Z,0.52
2023-03-15T06:45:04.289Z,1.00
2023-03-15T06:48:07.936Z,0.30
2023-03-15T06:51:13.090Z,0.40
2023-03-15T06:54:15.865Z,1.55
2023-03-15T06:57:19.062Z,2.03
2023-03-15T07:00:23.327Z,1.20
2023-03-15T07:03:26.692Z,0.88
2023-03-15T07:06:29.999Z,1.70
2023-03-15T07:09:32.529Z,0.57
2023-03-15T07:12:35.153Z,1.20
2023-03-15T07:15:38.151Z,0.38
2023-03-15T07:18:40.867Z,0.88
2023-03-15T07:21:44.050Z,1.80
2023-03-15T07:24:47.310Z,1.33
2023-03-15T07:27:53.317Z,1.45
2023-03-15T07:31:05.062Z,2.60
2023-03-15T07:34:07.616Z,2.47
2023-03-15T07:37:11.028Z,2.03
2023-03-15T07:40:16.036Z,2.05
2023-03-15T07:43:19.651Z,1.98
2023-03-15T07:46:26.172Z,2.58
2023-03-15T07:49:28.907Z,1.70
2023-03-15T07:52:31.597Z,1.57
2023-03-15T07:55:35.090Z,1.70
2023-03-15T07:58:37.773Z,2.05
2023-03-15T08:01:40.667Z,1.43
2023-03-15T08:04:43.342Z,2.28
2023-03-15T08:07:46.816Z,2.35
2023-03-15T08:10:50.358Z,1.35
2023-03-15T08:13:53.131Z,1.60
2023-03-15T08:16:56.087Z,1.40
2023-03-15T08:19:58.893Z,1.83
2023-03-15T08:23:01.896Z,2.60
2023-03-15T08:26:04.809Z,2.28
2023-03-15T08:29:07.221Z,1.60
2023-03-15T08:32:10.106Z,2.53
2023-03-15T08:35:15.923Z,1.83
2023-03-15T08:38:18.884Z,2.72
2023-03-15T08:41:21.517Z,3.20
2023-03-15T08:44:24.382Z,1.85
2023-03-15T08:47:26.829Z,3.80
2023-03-15T08:50:33.083Z,3.90
2023-03-15T08:53:35.888Z,3.63
2023-03-15T08:56:39.092Z,4.70
2023-03-15T08:59:41.619Z,4.07
2023-03-15T09:02:44.854Z,3.67
2023-03-15T09:05:47.647Z,3.53
2023-03-15T09:08:50.789Z,4.05
2023-03-15T09:11:53.726Z,3.13
2023-03-15T09:14:56.697Z,3.30
2023-03-15T09:17:59.594Z,2.72
2023-03-15T09:21:02.549Z,2.38
2023-03-15T09:24:05.297Z,4.00
2023-03-15T09:27:08.349Z,4.70
2023-03-15T09:30:11.519Z,3.63
2023-03-15T09:33:15.947Z,2.97
2023-03-15T09:36:18.534Z,3.03
2023-03-15T09:39:22.895Z,3.45
2023-03-15T09:42:30.464Z,1.48
2023-03-15T09:45:54.527Z,3.80
2023-03-15T09:49:35.813Z,2.65
2023-03-15T09:52:46.702Z,2.72
2023-03-15T09:55:51.558Z,2.50
2023-03-15T09:58:58.436Z,2.50
2023-03-15T10:02:23.835Z,2.70
2023-03-15T10:05:42.123Z,3.13
2023-03-15T10:08:46.741Z,0.98
2023-03-15T10:12:08.963Z,2.22
2023-03-15T10:15:48.135Z,2.25
2023-03-15T10:19:12.527Z,2.28
2023-03-15T10:22:14.896Z,1.80
2023-03-15T10:25:26.372Z,2.25
2023-03-15T10:28:34.778Z,1.90
2023-03-15T10:31:44.842Z,2.35
2023-03-15T10:34:52.914Z,2.15
2023-03-15T10:37:55.730Z,1.67
2023-03-15T10:41:00.858Z,1.17
2023-03-15T10:44:08.522Z,1.85
2023-03-15T10:47:23.738Z,2.05
2023-03-15T10:50:31.615Z,3.35
2023-03-15T10:53:34.213Z,3.03
2023-03-15T10:56:51.784Z,3.60
2023-03-15T11:00:31.860Z,1.00
2023-03-15T11:03:36.144Z,2.50
2023-03-15T11:06:49.718Z,1.45
2023-03-15T11:09:55.141Z,1.70
2023-03-15T11:13:34.750Z,1.98
2023-03-15T11:16:38.211Z,1.90
2023-03-15T11:19:46.199Z,7.10
2023-03-15T11:22:50.308Z,4.13
2023-03-15T11:25:54.749Z,4.05
2023-03-15T11:29:04.300Z,4.22
2023-03-15T11:32:15.551Z,6.30
2023-03-15T11:35:32.551Z,4.05
2023-03-15T11:38:44.384Z,3.05
2023-03-15T11:41:59.658Z,2.00
2023-03-15T11:45:06.879Z,1.83
2023-03-15T11:48:22.503Z,2.90
2023-03-15T11:51:25.337Z,2.25
2023-03-15T11:54:32.523Z,4.07
2023-03-15T11:57:36.509Z,2.60
2023-03-15T12:00:47.481Z,2.60
2023-03-15T12:03:50.737Z,4.27
2023-03-15T12:06:55.645Z,2.90
2023-03-15T12:10:04.424Z,2.72
2023-03-15T12:13:18.341Z,3.97
2023-03-15T12:16:22.143Z,3.38
2023-03-15T12:19:27.062Z,3.83
2023-03-15T12:22:33.975Z,3.40
2023-03-15T12:25:55.309Z,2.25
2023-03-15T12:29:01.142Z,2.35
2023-03-15T12:32:03.791Z,1.88
2023-03-15T12:35:16.095Z,2.30
2023-03-15T12:38:36.976Z,2.67
2023-03-15T12:41:50.835Z,3.08
2023-03-15T12:44:53.469Z,1.93
2023-03-15T12:47:56.140Z,4.53
2023-03-15T12:51:01.639Z,4.47
2023-03-15T12:54:04.811Z,4.65
2023-03-15T12:57:11.840Z,3.80
2023-03-15T13:00:23.931Z,3.10
2023-03-15T13:03:27.212Z,2.50
2023-03-15T13:06:38.500Z,3.63
2023-03-15T13:10:04.928Z,2.33
2023-03-15T13:13:10.858Z,2.75
2023-03-15T13:16:29.945Z,2.80
2023-03-15T13:19:41.818Z,1.92
2023-03-15T13:23:17.468Z,1.67
2023-03-15T13:26:39.043Z,1.88
2023-03-15T13:29:41.914Z,2.55
2023-03-15T13:32:44.607Z,2.15
2023-03-15T13:35:56.011Z,3.15
2023-03-15T13:38:58.651Z,3.77
2023-03-15T13:42:16.630Z,2.38
2023-03-15T13:45:19.156Z,2.60
2023-03-15T13:48:21.976Z,3.10
2023-03-15T13:51:27.952Z,2.17
2023-03-15T13:54:31.921Z,1.63
2023-03-15T13:57:34.409Z,2.30
2023-03-15T14:00:37.485Z,1.83
2023-03-15T14:03:43.733Z,2.08
2023-03-15T14:06:47.338Z,1.70
2023-03-15T14:10:07.748Z,2.70
2023-03-15T14:13:25.880Z,2.92
2023-03-15T14:17:00.978Z,1.20
2023-03-15T14:20:16.383Z,3.13
2023-03-15T14:23:24.515Z,2.42
2023-03-15T14:26:29.029Z,2.45
2023-03-15T14:29:34.362Z,3.47
2023-03-15T14:32:39.010Z,2.33
2023-03-15T14:35:44.246Z,2.15
2023-03-15T14:38:55.223Z,2.45
2023-03-15T14:41:57.991Z,2.47
2023-03-15T14:45:00.809Z,2.50
2023-03-15T14:48:28.701Z,2.03
2023-03-15T14:51:33.067Z,3.60
2023-03-15T14:54:35.630Z,3.10
2023-03-15T14:57:38.616Z,1.80
2023-03-15T15:00:58.117Z,1.40
2023-03-15T15:04:03.094Z,2.42
2023-03-15T15:07:05.614Z,3.22
2023-03-15T15:10:08.715Z,2.22
2023-03-15T15:13:21.689Z,1.90
2023-03-15T15:16:24.413Z,2.13
2023-03-15T15:19:27.482Z,1.88
2023-03-15T15:22:30.447Z,1.53
2023-03-15T15:25:34.191Z,1.17
2023-03-15T15:28:37.685Z,1.80
2023-03-15T15:31:41.707Z,1.80
2023-03-15T15:34:44.874Z,3.03
2023-03-15T15:37:50.221Z,1.63
2023-03-15T15:40:53.848Z,2.08
2023-03-15T15:43:56.523Z,1.23
2023-03-15T15:47:01.238Z,1.90
2023-03-15T15:50:04.156Z,1.58
2023-03-15T15:53:07.822Z,1.40
2023-03-15T15:56:14.246Z,1.73
2023-03-15T15:59:17.884Z,2.80
2023-03-15T16:02:23.440Z,2.78
2023-03-15T16:05:29.027Z,1.77
2023-03-15T16:08:38.404Z,1.33
2023-03-15T16:11:41.295Z,1.55
2023-03-15T16:14:44.232Z,0.90
2023-03-15T16:17:47.344Z,1.15
2023-03-15T16:20:53.890Z,0.95
2023-03-15T16:24:04.139Z,0.70
2023-03-15T16:27:08.862Z,0.50
2023-03-15T16:30:22.611Z,1.23
2023-03-15T16:33:26.067Z,1.33
2023-03-15T16:36:33.843Z,1.10
2023-03-15T16:39:37.123Z,0.70
2023-03-15T16:42:40.167Z,0.50
2023-03-15T16:45:43.080Z,1.03
2023-03-15T16:48:46.540Z,0.88
2023-03-15T16:51:52.599Z,1.00
2023-03-15T16:54:56.229Z,0.73
2023-03-15T16:58:01.225Z,0.98
2023-03-15T17:01:04.838Z,1.35
2023-03-15T17:04:07.812Z,1.15
2023-03-15T17:07:11.632Z,1.02
2023-03-15T17:10:21.747Z,0.90
2023-03-15T17:13:29.933Z,1.00
2023-03-15T17:16:32.858Z,1.83
2023-03-15T17:19:37.284Z,1.85
2023-03-15T17:22:44.282Z,1.85
2023-03-15T17:25:47.325Z,1.60
2023-03-15T17:28:50.958Z,1.45
2023-03-15T17:31:54.684Z,1.75
2023-03-15T17:34:59.138Z,2.15
2023-03-15T17:38:06.853Z,2.10
2023-03-15T17:41:22.059Z,2.33
2023-03-15T17:44:25.085Z,1.70
2023-03-15T17:47:29.206Z,2.53
2023-03-15T17:50:34.174Z,1.60
2023-03-15T17:53:36.950Z,0.95
2023-03-15T17:56:40.163Z,2.20
2023-03-15T17:59:43.064Z,2.67
2023-03-15T18:02:55.001Z,2.25
2023-03-15T18:06:01.403Z,2.60
2023-03-15T18:09:04.525Z,2.08
2023-03-15T18:12:10.726Z,2.20
2023-03-15T18:15:17.396Z,1.70
2023-03-15T18:18:20.449Z,0.53
2023-03-15T18:21:26.039Z,1.80
2023-03-15T18:24:29.254Z,1.02
2023-03-15T18:27:32.775Z,2.00
2023-03-15T18:30:37.068Z,0.77
2023-03-15T18:33:40.215Z,1.08
2023-03-15T18:36:43.002Z,1.73
2023-03-15T18:39:46.419Z,1.75
2023-03-15T18:42:49.934Z,2.20
2023-03-15T18:45:53.133Z,1.10
2023-03-15T18:48:57.649Z,2.13
2023-03-15T18:52:01.635Z,1.40
2023-03-15T18:55:07.760Z,1.65
2023-03-15T18:58:13.267Z,1.77
2023-03-15T19:01:18.921Z,2.30
2023-03-15T19:04:22.270Z,3.08
2023-03-15T19:07:25.737Z,3.22
2023-03-15T19:10:29.099Z,2.38
2023-03-15T19:13:32.100Z,1.92
2023-03-15T19:16:35.758Z,2.10
2023-03-15T19:19:42.312Z,2.03
2023-03-15T19:22:45.427Z,1.70
2023-03-15T19:25:49.557Z,1.70
2023-03-15T19:28:52.946Z,2.57
2023-03-15T19:31:56.596Z,2.55
2023-03-15T19:35:00.344Z,1.88
2023-03-15T19:38:03.079Z,1.73
2023-03-15T19:41:09.751Z,2.03
2023-03-15T19:44:15.135Z,1.58
2023-03-15T19:47:18.141Z,1.30
2023-03-15T19:50:20.786Z,0.93
2023-03-15T19:53:23.762Z,1.80
2023-03-15T19:56:27.253Z,0.93
2023-03-15T19:59:39.964Z,0.70
2023-03-15T20:02:43.724Z,1.10
2023-03-15T20:05:46.787Z,1.50
2023-03-15T20:08:49.486Z,1.38
2023-03-15T20:11:52.551Z,0.60
2023-03-15T20:14:55.517Z,1.08
2023-03-15T20:17:58.485Z,1.50
2023-03-15T20:21:01.177Z,0.87
2023-03-15T20:24:07.035Z,1.00
2023-03-15T20:27:11.154Z,1.52
2023-03-15T20:30:16.410Z,1.70
2023-03-15T20:33:19.562Z,1.15
2023-03-15T20:36:22.559Z,1.33
2023-03-15T20:39:25.810Z,1.67
2023-03-15T20:42:29.015Z,1.65
2023-03-15T20:45:33.331Z,1.50
2023-03-15T20:48:37.106Z,1.20
2023-03-15T20:51:39.996Z,1.70
2023-03-15T20:54:43.011Z,1.45
2023-03-15T20:57:45.918Z,1.95
2023-03-15T21:00:49.546Z,1.57
2023-03-15T21:03:56.065Z,1.45
2023-03-15T21:07:04.418Z,1.60
2023-03-15T21:10:07.667Z,2.13
2023-03-15T21:13:12.553Z,1.60
2023-03-15T21:16:15.472Z,2.33
2023-03-15T21:19:19.042Z,1.75
2023-03-15T21:22:21.870Z,1.13
2023-03-15T21:25:24.318Z,1.35
2023-03-15T21:28:27.147Z,2.50
2023-03-15T21:31:30.213Z,1.80
2023-03-15T21:34:33.305Z,1.67
2023-03-15T21:37:36.066Z,1.75
2023-03-15T21:40:38.718Z,2.25
2023-03-15T21:43:41.905Z,1.70
2023-03-15T21:46:44.458Z,2.60
2023-03-15T21:49:47.608Z,3.92
2023-03-15T21:52:50.496Z,3.90
2023-03-15T21:55:55.844Z,4.25
2023-03-15T21:58:58.648Z,3.10
2023-03-15T22:02:01.903Z,3.93
2023-03-15T22:05:06.019Z,2.40
2023-03-15T22:08:08.913Z,2.40
2023-03-15T22:11:11.459Z,1.90
2023-03-15T22:14:14.117Z,2.33
2023-03-15T22:17:16.572Z,2.50
2023-03-15T22:20:19.430Z,2.58
2023-03-15T22:23:22.681Z,2.27
2023-03-15T22:26:25.522Z,2.53
2023-03-15T22:29:29.734Z,2.25
2023-03-15T22:32:32.455Z,1.43
2023-03-15T22:35:35.256Z,2.08
2023-03-15T22:38:38.183Z,3.50
2023-03-15T22:41:41.035Z,3.00
2023-03-15T22:44:46.109Z,3.40
2023-03-15T22:47:49.718Z,2.83
2023-03-15T22:51:07.183Z,2.80
2023-03-15T22:54:09.988Z,2.67
2023-03-15T22:57:12.604Z,2.90
2023-03-15T23:00:21.140Z,2.78
2023-03-15T23:03:24.443Z,2.80
2023-03-15T23:06:27.004Z,2.92
2023-03-15T23:09:29.786Z,2.95
2023-03-15T23:12:36.252Z,3.67
2023-03-15T23:15:39.406Z,3.03
2023-03-15T23:18:42.738Z,2.47
2023-03-15T23:21:45.815Z,2.60
2023-03-15T23:24:48.508Z,2.97
2023-03-15T23:27:51.601Z,3.45
2023-03-15T23:30:54.398Z,3.00
2023-03-15T23:33:56.977Z,3.03
2023-03-15T23:36:59.710Z,2.90
2023-03-15T23:40:02.482Z,1.50
2023-03-15T23:43:05.913Z,2.45
2023-03-15T23:46:08.834Z,2.22
2023-03-15T23:49:12.698Z,1.90
2023-03-15T23:52:15.521Z,2.85
2023-03-15T23:55:18.066Z,2.33
2023-03-15T23:58:21.458Z,2.63
